Time;durP1;ratioP1;P1;durP2;ratioP2;P2;SDS_P1;SDS_P2;PMS_P1;PMS_P2;Temp;Humidity;BMP_temperature;BMP_pressure;BME280_temperature;BME280_humidity;BME280_pressure;Samples;Min_cycle;Max_cycle;Signal;HPM_P1;HPM_P2
2021/07/23 00:02:17;;;;;;;18.23;16.27;;;16.50;72.10;;;;;;5048437;29;20057;-69
2021/07/23 00:04:49;;;;;;;16.85;15.10;;;16.60;72.40;;;;;;5050960;29;20044;-70
2021/07/23 00:07:21;;;;;;;18.77;15.82;;;16.60;73.10;;;;;;5051184;29;20048;-69
2021/07/23 00:09:53;;;;;;;20.85;15.80;;;16.50;72.80;;;;;;5052699;29;20036;-69
2021/07/23 00:12:25;;;;;;;18.33;16.33;;;16.60;73.30;;;;;;5039784;29;20076;-69
2021/07/23 00:14:59;;;;;;;18.88;15.95;;;16.50;72.80;;;;;;5049972;29;20049;-69
2021/07/23 00:17:33;;;;;;;18.30;16.27;;;16.50;72.80;;;;;;5047586;29;20100;-69
2021/07/23 00:20:06;;;;;;;18.83;15.43;;;16.50;72.80;;;;;;5049417;29;20049;-69
2021/07/23 00:22:38;;;;;;;19.30;15.73;;;16.50;72.80;;;;;;5051250;29;20515;-69
2021/07/23 00:25:11;;;;;;;18.95;16.95;;;16.50;72.50;;;;;;5050156;29;20447;-69
2021/07/23 00:27:43;;;;;;;20.42;16.63;;;16.50;72.50;;;;;;5050230;29;21077;-70
2021/07/23 00:30:15;;;;;;;17.90;16.02;;;16.50;72.70;;;;;;5049788;29;20052;-70
2021/07/23 00:32:47;;;;;;;17.38;15.65;;;16.40;73.20;;;;;;5047953;29;20080;-69
2021/07/23 00:35:20;;;;;;;17.67;15.88;;;16.30;73.70;;;;;;5048172;29;20101;-69
2021/07/23 00:37:52;;;;;;;17.95;16.05;;;16.20;73.70;;;;;;5050587;29;20515;-68
2021/07/23 00:40:25;;;;;;;19.50;16.83;;;16.20;73.70;;;;;;5032157;29;20139;-69
2021/07/23 00:42:57;;;;;;;21.33;17.38;;;16.20;74.60;;;;;;5036022;29;20161;-69
2021/07/23 00:45:29;;;;;;;17.95;15.85;;;16.20;75.20;;;;;;5031374;29;20093;-69
2021/07/23 00:48:01;;;;;;;17.88;16.00;;;16.20;73.90;;;;;;5040650;29;20080;-70
2021/07/23 00:50:36;;;;;;;18.23;15.70;;;16.20;73.80;;;;;;5048995;29;20044;-70
2021/07/23 00:53:10;;;;;;;17.23;15.43;;;16.20;73.70;;;;;;5050029;29;20104;-69
2021/07/23 00:55:51;;;;;;;17.60;15.65;;;16.20;73.60;;;;;;5047638;29;20048;-70
2021/07/23 00:58:25;;;;;;;17.30;15.30;;;16.10;73.40;;;;;;5033647;29;20072;-69
2021/07/23 01:01:00;;;;;;;18.23;16.38;;;16.10;73.60;;;;;;5036583;29;20042;-69
2021/07/23 01:03:38;;;;;;;18.42;15.80;;;16.20;73.90;;;;;;5049834;29;20577;-69
2021/07/23 01:06:13;;;;;;;18.17;16.25;;;16.10;74.00;;;;;;5015166;29;20109;-69
2021/07/23 01:08:45;;;;;;;18.13;15.93;;;16.10;74.20;;;;;;5039947;29;20330;-69
2021/07/23 01:11:21;;;;;;;19.40;16.10;;;16.10;74.90;;;;;;5019579;29;20859;-69
2021/07/23 01:14:05;;;;;;;18.88;15.93;;;16.00;74.10;;;;;;5021606;29;20053;-68
2021/07/23 01:16:37;;;;;;;17.45;15.57;;;16.00;74.30;;;;;;5030868;29;20613;-69
2021/07/23 01:19:11;;;;;;;20.90;16.02;;;16.00;74.20;;;;;;5049713;29;20049;-69
2021/07/23 01:21:48;;;;;;;17.50;15.70;;;15.90;74.00;;;;;;5028920;29;20121;-69
2021/07/23 01:24:21;;;;;;;17.33;15.35;;;15.90;74.80;;;;;;5048445;29;20068;-69
2021/07/23 01:26:54;;;;;;;19.25;15.98;;;15.90;75.20;;;;;;5049459;29;20044;-69
2021/07/23 01:29:46;;;;;;;17.33;15.45;;;15.90;74.40;;;;;;5037009;29;20184;-69
2021/07/23 01:32:18;;;;;;;16.90;15.10;;;16.00;74.20;;;;;;5031804;29;20592;-70
2021/07/23 01:34:50;;;;;;;17.52;15.68;;;15.90;74.50;;;;;;5033609;29;20539;-69
2021/07/23 01:37:24;;;;;;;17.63;15.73;;;15.90;74.50;;;;;;5047934;29;20056;-69
2021/07/23 01:39:58;;;;;;;18.65;16.17;;;15.90;75.00;;;;;;5033788;29;20587;-70
2021/07/23 01:42:32;;;;;;;17.02;15.27;;;15.80;74.90;;;;;;5046518;29;20542;-69
2021/07/23 01:45:06;;;;;;;17.63;15.82;;;15.80;75.10;;;;;;5049216;29;20542;-68
2021/07/23 01:47:39;;;;;;;19.65;16.48;;;15.80;75.20;;;;;;5033239;29;20584;-69
2021/07/23 01:50:11;;;;;;;17.85;15.65;;;15.80;75.20;;;;;;5046495;29;20053;-69
2021/07/23 01:52:43;;;;;;;18.40;16.50;;;15.80;75.30;;;;;;5024821;29;20108;-69
2021/07/23 01:55:16;;;;;;;17.67;15.88;;;15.80;75.60;;;;;;5033136;29;20093;-69
2021/07/23 01:57:50;;;;;;;18.40;15.95;;;15.70;76.00;;;;;;5031445;29;20045;-69
2021/07/23 02:00:22;;;;;;;17.15;15.35;;;15.70;75.50;;;;;;5046528;29;20538;-68
2021/07/23 02:02:55;;;;;;;17.05;15.25;;;15.60;76.40;;;;;;5047854;29;20678;-68
2021/07/23 02:05:38;;;;;;;17.77;15.88;;;15.50;76.00;;;;;;5043772;29;20049;-69
2021/07/23 02:08:10;;;;;;;18.95;15.95;;;15.50;76.10;;;;;;5033081;29;21567;-68
2021/07/23 02:10:42;;;;;;;17.15;15.32;;;15.50;76.00;;;;;;5031113;29;20049;-69
2021/07/23 02:13:14;;;;;;;16.50;14.80;;;15.50;76.20;;;;;;5031333;29;20045;-68
2021/07/23 02:15:50;;;;;;;17.13;15.43;;;15.50;75.80;;;;;;5035113;29;20132;-69
2021/07/23 02:18:26;;;;;;;18.30;15.55;;;15.50;76.10;;;;;;5045535;29;20115;-70
2021/07/23 02:20:59;;;;;;;17.20;15.32;;;15.60;75.50;;;;;;5043190;29;20080;-68
2021/07/23 02:23:31;;;;;;;21.13;16.85;;;15.60;76.00;;;;;;5040567;29;20056;-69
2021/07/23 02:26:14;;;;;;;22.30;16.15;;;15.60;75.60;;;;;;5044997;29;20526;-70
2021/07/23 02:28:48;;;;;;;17.25;15.45;;;15.60;76.00;;;;;;5040175;29;20041;-69
2021/07/23 02:31:20;;;;;;;17.25;15.45;;;15.60;75.70;;;;;;5048243;29;20594;-69
2021/07/23 02:34:02;;;;;;;20.40;17.00;;;15.50;76.40;;;;;;5046972;29;20051;-69
2021/07/23 02:36:38;;;;;;;18.73;16.23;;;15.40;76.20;;;;;;5012653;29;20047;-70
2021/07/23 02:39:13;;;;;;;20.50;16.38;;;15.40;75.70;;;;;;5045232;29;20838;-69
2021/07/23 02:41:52;;;;;;;18.35;15.07;;;15.40;75.80;;;;;;5029087;29;20041;-68
2021/07/23 02:44:25;;;;;;;18.35;16.20;;;15.40;76.60;;;;;;5048471;29;20056;-69
2021/07/23 02:46:56;;;;;;;21.35;16.77;;;15.40;76.20;;;;;;5047310;29;20153;-68
2021/07/23 02:49:32;;;;;;;16.88;15.07;;;15.20;76.70;;;;;;5030479;29;20108;-69
2021/07/23 02:52:04;;;;;;;18.20;16.30;;;15.30;76.00;;;;;;5033671;29;20053;-69
2021/07/23 02:54:38;;;;;;;18.17;15.95;;;15.30;76.20;;;;;;5046851;29;20055;-69
2021/07/23 02:57:10;;;;;;;19.80;16.45;;;15.30;77.30;;;;;;5046142;29;20660;-68
2021/07/23 02:59:47;;;;;;;19.05;16.60;;;15.10;77.40;;;;;;5032154;29;20072;-70
2021/07/23 03:02:20;;;;;;;18.48;16.35;;;15.10;78.10;;;;;;5027125;29;20048;-68
2021/07/23 03:04:53;;;;;;;19.67;16.95;;;15.10;78.80;;;;;;5024935;29;20040;-68
2021/07/23 03:07:26;;;;;;;21.17;16.17;;;15.10;78.90;;;;;;5018037;29;20120;-69
2021/07/23 03:10:00;;;;;;;20.55;16.58;;;15.10;78.40;;;;;;5035256;29;20068;-70
2021/07/23 03:12:34;;;;;;;19.85;16.00;;;15.20;78.60;;;;;;5030190;29;20696;-70
2021/07/23 03:15:07;;;;;;;18.70;16.30;;;15.20;78.20;;;;;;5050422;29;20146;-69
2021/07/23 03:17:39;;;;;;;18.35;16.50;;;15.20;78.30;;;;;;5032124;29;20547;-70
2021/07/23 03:20:13;;;;;;;19.73;15.40;;;15.20;78.00;;;;;;5047124;29;20040;-70
2021/07/23 03:22:45;;;;;;;17.20;15.40;;;15.20;77.20;;;;;;5047284;29;20192;-69
2021/07/23 03:25:45;;;;;;;17.70;15.68;;;15.20;77.40;;;;;;5029001;29;20101;-70
2021/07/23 03:28:29;;;;;;;18.83;15.95;;;15.10;76.90;;;;;;5048939;29;20033;-71
2021/07/23 03:31:13;;;;;;;19.13;16.42;;;15.20;76.80;;;;;;5036808;29;20045;-69
2021/07/23 03:33:47;;;;;;;17.42;15.63;;;15.10;77.80;;;;;;5027034;29;20045;-69
2021/07/23 03:36:26;;;;;;;18.52;16.52;;;15.10;78.10;;;;;;5049770;29;20048;-70
2021/07/23 03:38:58;;;;;;;18.95;16.15;;;15.00;78.00;;;;;;5030504;29;20045;-69
2021/07/23 03:41:30;;;;;;;17.65;15.73;;;15.00;78.20;;;;;;5048822;29;20049;-69
2021/07/23 03:44:08;;;;;;;23.10;15.98;;;15.00;77.50;;;;;;5048768;29;20063;-68
2021/07/23 03:46:42;;;;;;;19.23;17.08;;;15.00;78.10;;;;;;5027136;29;20053;-72
2021/07/23 03:49:16;;;;;;;18.13;16.15;;;14.90;78.30;;;;;;5031130;29;20108;-69
2021/07/23 03:51:52;;;;;;;18.90;16.90;;;14.90;79.10;;;;;;5035177;29;20052;-68
2021/07/23 03:54:28;;;;;;;18.88;16.88;;;14.90;78.70;;;;;;5048043;29;20923;-69
2021/07/23 03:57:04;;;;;;;19.35;17.35;;;14.90;79.30;;;;;;5048320;29;20045;-69
2021/07/23 03:59:36;;;;;;;19.77;17.35;;;14.90;79.40;;;;;;5051572;29;20787;-70
2021/07/23 04:02:08;;;;;;;19.38;16.58;;;14.90;79.30;;;;;;5048708;29;20041;-69
2021/07/23 04:04:41;;;;;;;17.63;15.23;;;14.90;79.00;;;;;;5049322;29;20051;-71
2021/07/23 04:07:13;;;;;;;18.05;16.05;;;14.80;78.80;;;;;;5046740;29;20061;-69
2021/07/23 04:09:47;;;;;;;19.83;17.25;;;14.80;78.40;;;;;;5032411;29;20052;-70
2021/07/23 04:12:23;;;;;;;17.73;15.88;;;14.90;78.20;;;;;;5032993;29;20058;-69
2021/07/23 04:14:55;;;;;;;21.70;15.93;;;14.80;77.70;;;;;;5012182;29;20152;-70
2021/07/23 04:17:27;;;;;;;19.70;16.10;;;14.90;78.20;;;;;;5051308;29;20052;-70
2021/07/23 04:20:03;;;;;;;19.65;17.20;;;14.80;79.20;;;;;;5032279;29;20056;-70
2021/07/23 04:22:36;;;;;;;18.23;16.27;;;14.80;78.70;;;;;;5051481;29;20049;-69
2021/07/23 04:25:14;;;;;;;18.33;16.27;;;14.80;78.20;;;;;;5022206;29;20057;-69
2021/07/23 04:27:47;;;;;;;19.45;15.73;;;14.90;78.10;;;;;;5047707;29;20049;-69
2021/07/23 04:30:25;;;;;;;18.25;15.95;;;14.80;78.50;;;;;;5045789;29;20048;-70
2021/07/23 04:33:16;;;;;;;19.52;16.13;;;14.80;79.10;;;;;;5049547;29;20447;-70
2021/07/23 04:36:21;;;;;;;18.30;16.35;;;14.80;79.20;;;;;;5048895;29;21708;-69
2021/07/23 04:38:53;;;;;;;19.20;15.98;;;14.80;79.00;;;;;;5049400;29;20127;-69
2021/07/23 04:41:26;;;;;;;19.08;15.15;;;14.80;78.70;;;;;;5029058;29;20052;-69
2021/07/23 04:44:00;;;;;;;17.15;15.35;;;14.80;78.10;;;;;;5032809;29;20048;-69
2021/07/23 04:46:32;;;;;;;18.52;15.75;;;14.80;79.60;;;;;;5039462;29;20740;-70
2021/07/23 04:49:05;;;;;;;18.75;15.30;;;14.80;78.50;;;;;;5051231;29;20128;-69
2021/07/23 04:51:43;;;;;;;19.35;16.42;;;14.90;77.80;;;;;;5031893;29;20528;-69
2021/07/23 04:54:41;;;;;;;18.20;15.65;;;15.10;78.20;;;;;;5041992;29;20473;-69
2021/07/23 04:57:31;;;;;;;;;;;15.20;78.00;;;;;;5051646;29;20053;-69
2021/07/23 05:00:08;;;;;;;18.13;15.68;;;15.30;78.10;;;;;;5031606;29;20347;-71
2021/07/23 05:02:42;;;;;;;18.25;14.75;;;15.40;78.00;;;;;;5048217;29;20065;-69
2021/07/23 05:05:17;;;;;;;17.88;16.00;;;15.50;77.90;;;;;;5047333;29;20451;-69
2021/07/23 05:07:50;;;;;;;20.05;16.25;;;15.60;78.20;;;;;;5049645;29;20049;-69
2021/07/23 05:10:23;;;;;;;17.85;15.95;;;15.80;78.40;;;;;;5048556;29;20056;-70
2021/07/23 05:12:55;;;;;;;17.35;15.55;;;15.80;77.80;;;;;;5049131;29;20448;-71
2021/07/23 05:15:29;;;;;;;17.88;15.98;;;15.90;77.90;;;;;;5049993;29;20049;-69
2021/07/23 05:18:02;;;;;;;20.20;16.92;;;16.10;77.90;;;;;;5048254;29;20045;-69
2021/07/23 05:20:36;;;;;;;18.95;15.75;;;16.20;77.40;;;;;;5031609;29;20041;-70
2021/07/23 05:23:08;;;;;;;19.20;16.60;;;16.30;77.50;;;;;;5030665;29;20120;-70
2021/07/23 05:25:40;;;;;;;18.35;16.15;;;16.40;77.40;;;;;;5052595;29;20097;-70
2021/07/23 05:28:12;;;;;;;18.48;16.25;;;16.40;77.20;;;;;;5053253;29;20048;-70
2021/07/23 05:30:49;;;;;;;20.92;17.05;;;16.50;77.60;;;;;;5049045;29;20842;-70
2021/07/23 05:33:20;;;;;;;20.75;16.40;;;16.50;77.60;;;;;;5048621;29;20049;-70
2021/07/23 05:35:52;;;;;;;16.80;15.00;;;16.60;76.60;;;;;;5046536;29;20051;-70
2021/07/23 05:38:24;;;;;;;17.90;15.80;;;16.60;76.90;;;;;;5017495;29;20432;-70
2021/07/23 05:40:56;;;;;;;18.85;16.08;;;16.60;76.50;;;;;;5017359;29;20045;-69
2021/07/23 05:43:28;;;;;;;18.75;16.25;;;16.60;75.70;;;;;;5046366;29;21958;-69
2021/07/23 05:46:04;;;;;;;17.75;15.88;;;16.40;76.20;;;;;;5045462;29;20049;-69
2021/07/23 05:48:40;;;;;;;21.08;15.68;;;16.40;77.50;;;;;;5046736;29;20060;-70
2021/07/23 05:51:12;;;;;;;18.80;16.42;;;16.40;77.50;;;;;;5044113;29;20116;-69
2021/07/23 05:53:44;;;;;;;17.55;15.65;;;16.60;77.30;;;;;;5020144;29;20526;-71
2021/07/23 05:56:16;;;;;;;17.88;15.77;;;16.70;76.60;;;;;;5047582;29;20135;-71
2021/07/23 05:58:53;;;;;;;18.40;16.08;;;16.90;76.50;;;;;;5044864;29;20127;-70
2021/07/23 06:01:25;;;;;;;19.60;17.08;;;17.20;76.60;;;;;;5036856;29;20144;-69
2021/07/23 06:03:57;;;;;;;19.17;17.13;;;17.30;76.00;;;;;;5047916;29;20052;-71
2021/07/23 06:06:30;;;;;;;18.20;16.25;;;17.50;76.00;;;;;;5015395;29;20044;-70
2021/07/23 06:09:10;;;;;;;18.23;15.85;;;17.70;75.60;;;;;;5035582;29;20052;-69
2021/07/23 06:11:42;;;;;;;19.02;16.40;;;17.80;75.20;;;;;;5048639;29;20602;-70
2021/07/23 06:14:17;;;;;;;19.17;16.65;;;17.90;74.30;;;;;;5049675;29;20048;-69
2021/07/23 06:16:49;;;;;;;19.42;16.05;;;18.10;73.80;;;;;;5035957;29;20430;-70
2021/07/23 06:19:21;;;;;;;19.20;16.27;;;18.30;73.70;;;;;;5049625;29;20593;-70
2021/07/23 06:21:53;;;;;;;18.60;16.70;;;18.40;74.00;;;;;;5048393;29;20405;-70
2021/07/23 06:24:25;;;;;;;19.13;16.88;;;18.50;73.10;;;;;;5046321;29;20052;-70
2021/07/23 06:26:57;;;;;;;18.25;16.35;;;18.60;73.70;;;;;;5029741;29;20096;-70
2021/07/23 06:29:28;;;;;;;20.25;16.25;;;18.60;72.90;;;;;;5046111;29;20049;-70
2021/07/23 06:32:00;;;;;;;18.60;16.70;;;18.60;72.50;;;;;;5045214;29;20073;-69
2021/07/23 06:34:33;;;;;;;21.27;17.58;;;18.80;72.50;;;;;;5049566;29;20053;-70
2021/07/23 06:37:05;;;;;;;19.33;17.27;;;18.90;70.20;;;;;;5022908;29;20053;-70
2021/07/23 06:39:37;;;;;;;19.05;17.05;;;19.00;69.10;;;;;;5047829;29;20076;-69
2021/07/23 06:42:09;;;;;;;18.17;16.38;;;19.10;67.80;;;;;;5045319;29;20578;-70
2021/07/23 06:44:41;;;;;;;18.05;16.15;;;19.20;66.90;;;;;;5049858;29;20124;-70
2021/07/23 06:47:12;;;;;;;19.45;16.88;;;19.40;67.30;;;;;;5045988;29;20057;-71
2021/07/23 06:49:47;;;;;;;19.88;17.83;;;19.50;67.20;;;;;;5047764;29;20164;-70
2021/07/23 06:52:19;;;;;;;18.85;16.55;;;19.60;69.30;;;;;;5038967;29;20058;-70
2021/07/23 06:54:55;;;;;;;19.65;17.52;;;19.80;66.90;;;;;;5044296;29;20063;-70
2021/07/23 06:57:31;;;;;;;17.70;15.90;;;19.90;65.80;;;;;;5047846;29;20048;-70
2021/07/23 07:00:04;;;;;;;19.50;17.58;;;20.00;65.30;;;;;;5044840;29;20112;-71
2021/07/23 07:02:36;;;;;;;19.92;17.50;;;20.00;67.40;;;;;;5027318;29;20052;-70
2021/07/23 07:05:08;;;;;;;19.17;17.15;;;20.20;67.10;;;;;;5046307;29;20155;-70
2021/07/23 07:07:40;;;;;;;19.75;17.75;;;20.30;67.50;;;;;;5030775;29;20070;-71
2021/07/23 07:10:12;;;;;;;19.65;16.67;;;20.30;67.20;;;;;;5047134;29;20045;-72
2021/07/23 07:12:44;;;;;;;19.55;17.63;;;20.20;65.80;;;;;;5046274;29;20053;-70
2021/07/23 07:15:16;;;;;;;21.95;17.95;;;20.20;67.20;;;;;;5031126;29;20052;-70
2021/07/23 07:17:54;;;;;;;19.40;17.42;;;20.50;67.50;;;;;;5048820;29;20096;-71
2021/07/23 07:20:26;;;;;;;20.42;17.75;;;20.70;66.80;;;;;;5021150;29;20049;-71
2021/07/23 07:22:58;;;;;;;20.05;17.65;;;20.60;67.00;;;;;;5030575;29;20131;-70
2021/07/23 07:25:33;;;;;;;20.20;18.08;;;20.60;64.60;;;;;;5048807;29;20116;-71
2021/07/23 07:28:06;;;;;;;19.63;17.55;;;20.70;64.70;;;;;;5046504;29;20137;-71
2021/07/23 07:30:58;;;;;;;20.02;17.92;;;20.90;65.10;;;;;;5033937;29;20048;-71
2021/07/23 07:33:30;;;;;;;20.45;16.42;;;21.10;63.40;;;;;;5048809;29;20044;-71
2021/07/23 07:36:02;;;;;;;19.75;17.73;;;21.20;64.10;;;;;;5047158;29;20144;-72
2021/07/23 07:38:36;;;;;;;18.88;16.92;;;21.00;62.50;;;;;;5048959;29;20045;-73
2021/07/23 07:41:08;;;;;;;19.40;17.40;;;21.10;64.40;;;;;;5046328;29;20124;-71
2021/07/23 07:43:40;;;;;;;19.95;17.38;;;21.30;63.10;;;;;;5046873;29;20081;-71
2021/07/23 07:46:12;;;;;;;19.48;17.58;;;21.40;63.00;;;;;;5047126;29;20049;-72
2021/07/23 07:48:44;;;;;;;19.42;17.52;;;21.50;63.70;;;;;;5046623;29;20068;-71
2021/07/23 07:51:16;;;;;;;21.50;17.67;;;21.50;64.10;;;;;;5044655;29;20135;-71
2021/07/23 07:53:48;;;;;;;19.30;17.30;;;21.70;66.00;;;;;;5033175;29;20135;-72
2021/07/23 07:56:20;;;;;;;19.50;17.60;;;21.80;65.90;;;;;;5044609;29;20125;-72
2021/07/23 07:58:52;;;;;;;20.33;18.30;;;22.00;65.50;;;;;;5045468;29;20041;-72
2021/07/23 08:01:24;;;;;;;23.02;18.77;;;22.20;65.30;;;;;;5048441;29;20147;-72
2021/07/23 08:03:56;;;;;;;20.20;18.25;;;22.30;64.80;;;;;;5046858;29;20172;-71
2021/07/23 08:06:37;;;;;;;20.98;17.80;;;22.40;65.20;;;;;;5049509;29;20527;-72
2021/07/23 08:09:11;;;;;;;21.58;19.38;;;22.60;65.00;;;;;;5045776;29;20048;-71
2021/07/23 08:11:43;;;;;;;21.33;19.33;;;22.70;63.40;;;;;;5043247;29;20064;-71
2021/07/23 08:14:15;;;;;;;23.20;17.85;;;22.80;63.50;;;;;;5046887;29;20080;-71
2021/07/23 08:16:47;;;;;;;20.40;18.40;;;22.80;63.50;;;;;;5030433;29;20144;-71
2021/07/23 08:19:20;;;;;;;21.30;19.15;;;22.90;63.10;;;;;;5028105;29;20044;-72
2021/07/23 08:21:52;;;;;;;20.80;18.70;;;23.10;63.20;;;;;;5049132;29;20097;-71
2021/07/23 08:24:24;;;;;;;20.70;18.73;;;23.30;63.60;;;;;;5037615;29;20044;-72
2021/07/23 08:26:56;;;;;;;20.13;18.13;;;23.50;63.70;;;;;;5033600;29;20109;-71
2021/07/23 08:29:28;;;;;;;20.90;18.90;;;23.50;62.10;;;;;;5051332;29;20112;-71
2021/07/23 08:32:10;;;;;;;21.80;19.50;;;23.50;61.30;;;;;;5048895;29;20132;-71
2021/07/23 08:34:42;;;;;;;21.95;19.70;;;23.60;61.90;;;;;;5051025;29;20048;-71
2021/07/23 08:37:14;;;;;;;22.38;20.05;;;23.70;60.90;;;;;;5051687;29;20051;-71
2021/07/23 08:39:46;;;;;;;21.98;19.60;;;23.80;61.60;;;;;;5049166;29;20404;-71
2021/07/23 08:42:28;;;;;;;21.80;19.60;;;23.90;61.00;;;;;;5048065;29;20041;-71
2021/07/23 08:45:05;;;;;;;22.70;20.35;;;24.00;61.60;;;;;;5040111;29;20065;-70
2021/07/23 08:47:37;;;;;;;21.25;19.23;;;24.10;61.90;;;;;;5050953;29;20848;-71
2021/07/23 08:50:09;;;;;;;22.35;20.15;;;24.20;60.70;;;;;;5049358;29;20069;-71
2021/07/23 08:52:47;;;;;;;22.25;20.17;;;24.20;61.20;;;;;;5045225;29;20101;-71
2021/07/23 08:55:19;;;;;;;23.08;20.88;;;24.20;60.20;;;;;;5046459;29;20095;-72
2021/07/23 08:57:52;;;;;;;23.60;21.13;;;24.30;61.60;;;;;;5049595;29;20045;-72
2021/07/23 09:00:25;;;;;;;24.25;21.75;;;24.50;61.20;;;;;;5051253;29;20128;-71
2021/07/23 09:03:02;;;;;;;24.17;21.90;;;24.50;60.40;;;;;;5048347;29;20501;-71
2021/07/23 09:05:45;;;;;;;23.40;21.20;;;24.60;60.30;;;;;;5048891;29;20048;-71
2021/07/23 09:08:18;;;;;;;23.23;21.17;;;24.60;59.60;;;;;;5044511;29;21138;-72
2021/07/23 09:11:06;;;;;;;23.98;21.65;;;24.70;59.60;;;;;;5048224;29;20092;-72
2021/07/23 09:13:38;;;;;;;23.10;20.95;;;24.70;59.20;;;;;;5047563;29;20068;-72
2021/07/23 09:16:24;;;;;;;23.65;21.35;;;24.90;59.50;;;;;;5032728;29;20049;-71
2021/07/23 09:19:07;;;;;;;23.55;21.08;;;24.90;59.70;;;;;;5036637;29;20220;-71
2021/07/23 09:21:40;;;;;;;22.83;20.73;;;25.00;60.00;;;;;;5034234;29;20468;-71
2021/07/23 09:24:12;;;;;;;23.98;21.52;;;25.10;59.10;;;;;;5050302;29;20045;-72
2021/07/23 09:26:46;;;;;;;23.52;21.23;;;25.10;59.30;;;;;;5043100;29;20133;-72
2021/07/23 09:29:18;;;;;;;23.33;21.02;;;25.20;59.00;;;;;;5040103;29;20105;-70
2021/07/23 09:32:09;;;;;;;23.52;21.20;;;25.00;59.20;;;;;;5493365;24;20140;-72
2021/07/23 09:34:41;;;;;;;23.25;21.15;;;24.90;58.90;;;;;;5028546;29;20045;-73
2021/07/23 09:37:13;;;;;;;23.50;21.40;;;24.90;59.60;;;;;;5030158;29;20049;-72
2021/07/23 09:39:57;;;;;;;23.85;21.55;;;25.00;59.10;;;;;;5028697;29;20037;-72
2021/07/23 09:42:29;;;;;;;23.98;21.58;;;25.20;59.30;;;;;;5028478;29;20470;-71
2021/07/23 09:45:02;;;;;;;24.20;21.90;;;25.30;58.60;;;;;;5027205;29;20500;-70
2021/07/23 09:47:34;;;;;;;24.48;22.08;;;25.10;59.50;;;;;;5028381;29;20124;-70
2021/07/23 09:50:07;;;;;;;24.05;21.77;;;25.00;59.30;;;;;;5025011;29;20069;-70
2021/07/23 09:52:39;;;;;;;24.55;22.35;;;25.10;58.80;;;;;;5026688;29;20884;-70
2021/07/23 09:55:11;;;;;;;23.65;21.52;;;25.10;59.60;;;;;;5028153;29;20153;-70
2021/07/23 09:57:47;;;;;;;24.33;22.08;;;25.00;59.40;;;;;;5028703;29;20045;-69
2021/07/23 10:00:23;;;;;;;24.17;21.85;;;24.80;59.10;;;;;;5028448;29;20780;-69
2021/07/23 10:02:55;;;;;;;24.27;21.98;;;24.90;59.80;;;;;;5036135;29;20121;-69
2021/07/23 10:05:34;;;;;;;24.45;22.10;;;24.90;57.40;;;;;;5025285;29;20512;-69
2021/07/23 10:08:10;;;;;;;24.40;22.05;;;25.10;60.00;;;;;;5028080;29;20077;-70
2021/07/23 10:10:43;;;;;;;23.83;21.73;;;25.30;58.10;;;;;;5024574;29;20053;-71
2021/07/23 10:13:19;;;;;;;23.27;21.27;;;25.40;58.00;;;;;;5031342;29;20045;-70
2021/07/23 10:15:51;;;;;;;23.95;21.75;;;25.50;57.30;;;;;;5028225;29;20551;-71
2021/07/23 10:18:38;;;;;;;24.15;22.10;;;25.60;56.70;;;;;;5027721;29;20593;-70
2021/07/23 10:21:10;;;;;;;23.35;20.92;;;25.70;55.40;;;;;;5026720;29;20822;-69
2021/07/23 10:23:44;;;;;;;23.05;20.80;;;25.70;56.40;;;;;;5027973;29;20046;-69
2021/07/23 10:26:18;;;;;;;23.38;21.10;;;25.80;57.60;;;;;;5027066;29;20482;-69
2021/07/23 10:28:53;;;;;;;23.83;21.63;;;25.70;56.90;;;;;;5026700;29;20415;-73
2021/07/23 10:31:25;;;;;;;23.85;21.85;;;25.90;57.20;;;;;;5028145;29;20085;-71
2021/07/23 10:34:03;;;;;;;24.08;21.88;;;26.00;56.40;;;;;;5030083;29;20049;-69
2021/07/23 10:36:35;;;;;;;25.17;22.92;;;26.20;57.30;;;;;;5031912;29;20053;-70
2021/07/23 10:39:09;;;;;;;23.95;21.67;;;26.20;56.40;;;;;;5032485;29;20148;-71
2021/07/23 10:42:02;;;;;;;24.52;22.33;;;26.30;55.70;;;;;;5025640;29;20504;-70
2021/07/23 10:44:37;;;;;;;24.60;22.38;;;26.40;54.80;;;;;;5025758;29;20073;-73
2021/07/23 10:47:10;;;;;;;23.90;21.60;;;26.40;56.00;;;;;;5030785;29;20073;-71
2021/07/23 10:49:45;;;;;;;25.88;23.23;;;26.60;56.30;;;;;;5027735;29;20106;-70
2021/07/23 10:52:36;;;;;;;24.95;22.55;;;26.70;56.10;;;;;;5026414;29;20060;-71
2021/07/23 10:55:22;;;;;;;24.58;22.38;;;26.80;52.30;;;;;;5025709;29;20049;-71
2021/07/23 10:58:09;;;;;;;24.08;22.02;;;26.80;54.40;;;;;;5023300;29;20117;-71
2021/07/23 11:01:10;;;;;;;24.60;22.27;;;26.90;53.40;;;;;;5028583;29;20713;-73
2021/07/23 11:03:45;;;;;;;26.05;23.65;;;27.00;54.00;;;;;;5028226;29;20145;-72
2021/07/23 11:06:27;;;;;;;24.48;22.38;;;27.20;54.00;;;;;;5026348;29;20106;-71
2021/07/23 11:09:04;;;;;;;23.95;21.83;;;27.20;53.10;;;;;;5019215;29;20144;-72
2021/07/23 11:11:36;;;;;;;25.20;22.85;;;27.10;52.60;;;;;;5027214;29;20587;-73
2021/07/23 11:14:16;;;;;;;24.65;22.45;;;27.20;54.80;;;;;;5028510;29;20402;-72
2021/07/23 11:16:48;;;;;;;;;;;27.20;52.70;;;;;;5030434;29;20061;-73
2021/07/23 11:19:25;;;;;;;24.20;21.90;;;27.30;51.50;;;;;;5027663;29;19928;-72
2021/07/23 11:21:57;;;;;;;24.25;22.25;;;27.30;51.10;;;;;;5026649;29;20080;-72
2021/07/23 11:24:35;;;;;;;24.42;22.23;;;27.40;51.80;;;;;;5027569;29;20081;-73
2021/07/23 11:27:07;;;;;;;25.02;22.50;;;27.50;50.20;;;;;;5028394;29;20045;-71
2021/07/23 11:29:41;;;;;;;24.58;22.38;;;27.50;51.30;;;;;;5026540;29;20175;-71
2021/07/23 11:32:14;;;;;;;25.35;23.08;;;27.60;48.50;;;;;;5008018;29;20053;-71
2021/07/23 11:34:47;;;;;;;24.35;22.20;;;27.60;50.00;;;;;;5030825;29;20157;-70
2021/07/23 11:37:25;;;;;;;24.60;22.17;;;27.70;49.60;;;;;;5027562;29;20061;-71
2021/07/23 11:40:03;;;;;;;23.80;21.67;;;27.70;49.40;;;;;;5027870;29;20120;-72
2021/07/23 11:42:36;;;;;;;24.77;22.35;;;27.80;49.70;;;;;;5030156;29;20048;-72
2021/07/23 11:45:10;;;;;;;24.77;22.58;;;27.90;51.20;;;;;;5032176;29;20049;-71
2021/07/23 11:47:44;;;;;;;24.42;22.42;;;28.00;50.60;;;;;;5030737;29;20046;-71
2021/07/23 11:50:18;;;;;;;24.20;22.20;;;28.00;49.80;;;;;;5028975;29;20049;-71
2021/07/23 11:53:00;;;;;;;24.50;22.30;;;27.70;50.90;;;;;;5033116;29;20049;-71
2021/07/23 11:55:40;;;;;;;25.42;23.15;;;27.70;49.90;;;;;;5029288;29;20077;-71
2021/07/23 11:58:41;;;;;;;;;;;27.80;50.00;;;;;;5035087;29;20085;-74
2021/07/23 12:01:18;;;;;;;23.15;21.17;;;28.00;50.50;;;;;;5027623;29;20796;-72
2021/07/23 12:03:55;;;;;;;24.90;22.77;;;28.20;49.70;;;;;;5031609;29;20056;-72
2021/07/23 12:06:29;;;;;;;24.33;22.00;;;28.30;47.90;;;;;;5030194;29;20744;-71
2021/07/23 12:09:12;;;;;;;23.40;21.30;;;28.40;48.20;;;;;;5028495;29;20045;-73
2021/07/23 12:11:44;;;;;;;24.73;22.25;;;28.40;48.70;;;;;;5029861;29;20106;-72
2021/07/23 12:14:17;;;;;;;24.10;21.90;;;28.40;48.20;;;;;;5031399;29;20131;-74
2021/07/23 12:16:52;;;;;;;23.30;21.10;;;28.40;47.60;;;;;;5030551;29;20060;-73
2021/07/23 12:19:24;;;;;;;23.05;20.90;;;28.50;48.00;;;;;;5032774;29;20060;-72
2021/07/23 12:22:15;;;;;;;24.17;21.88;;;28.60;42.60;;;;;;5031002;29;20164;-72
2021/07/23 12:24:47;;;;;;;23.70;21.70;;;28.60;43.60;;;;;;5034818;29;20499;-73
2021/07/23 12:27:23;;;;;;;21.70;19.90;;;28.60;43.10;;;;;;5032262;29;20536;-72
2021/07/23 12:29:56;;;;;;;20.08;18.23;;;28.70;37.60;;;;;;5048484;29;20670;-72
2021/07/23 12:32:27;;;;;;;20.75;18.60;;;28.80;32.90;;;;;;5031372;29;20127;-72
2021/07/23 12:35:00;;;;;;;19.00;17.27;;;28.80;29.80;;;;;;5036332;29;20064;-72
2021/07/23 12:37:32;;;;;;;18.75;17.13;;;28.70;28.40;;;;;;5023103;29;20049;-73
2021/07/23 12:40:06;;;;;;;18.30;16.73;;;28.70;26.60;;;;;;5030652;29;20109;-72
2021/07/23 12:42:38;;;;;;;18.02;16.33;;;28.70;28.80;;;;;;5031721;29;20106;-72
2021/07/23 12:45:33;;;;;;;18.45;16.95;;;28.80;26.50;;;;;;5032573;29;20049;-72
2021/07/23 12:48:16;;;;;;;19.98;18.25;;;28.90;30.20;;;;;;5030032;29;20060;-72
2021/07/23 12:51:05;;;;;;;19.85;18.15;;;29.00;29.70;;;;;;5029231;29;20033;-72
2021/07/23 12:53:39;;;;;;;20.05;18.35;;;29.10;26.10;;;;;;5030943;29;20057;-73
2021/07/23 12:56:11;;;;;;;20.45;18.65;;;29.10;29.60;;;;;;5033608;29;20046;-72
2021/07/23 12:58:45;;;;;;;20.50;18.45;;;29.20;30.00;;;;;;5029536;29;20053;-72
2021/07/23 13:01:17;;;;;;;20.65;18.85;;;29.30;32.70;;;;;;5030252;29;20060;-71
2021/07/23 13:03:53;;;;;;;20.83;19.10;;;29.40;31.60;;;;;;5028098;29;21084;-73
2021/07/23 13:06:25;;;;;;;21.10;19.20;;;29.40;33.20;;;;;;5030062;29;20049;-71
2021/07/23 13:08:59;;;;;;;20.90;19.10;;;29.40;33.70;;;;;;5031408;29;20480;-71